Time;durP1;ratioP1;P1;durP2;ratioP2;P2;SDS_P1;SDS_P2;PMS_P1;PMS_P2;Temp;Humidity;BMP_temperature;BMP_pressure;BME280_temperature;BME280_humidity;BME280_pressure;Samples;Min_cycle;Max_cycle;Signal;HPM_P1;HPM_P2
2022/06/14 00:03:03;;;;;;;;;9.33;9.33;;;;;20.61;56.04;101929.50;5054876;28;45591;-70
2022/06/14 00:05:29;;;;;;;;;9.00;7.00;;;;;20.57;55.55;101945.66;5055654;28;45709;-70
2022/06/14 00:07:55;;;;;;;;;7.67;7.67;;;;;20.52;55.73;101934.09;5054576;28;45534;-69
2022/06/14 00:10:20;;;;;;;;;7.00;7.00;;;;;20.48;56.10;101940.41;5055198;28;62263;-70
2022/06/14 00:12:45;;;;;;;;;9.67;8.33;;;;;20.46;56.51;101942.19;5056278;28;45444;-71
2022/06/14 00:15:11;;;;;;;;;11.67;8.33;;;;;20.41;57.60;101943.13;5054864;28;64726;-71
2022/06/14 00:17:36;;;;;;;;;10.00;8.33;;;;;20.36;57.47;101941.41;5055250;28;48601;-70
2022/06/14 00:20:02;;;;;;;;;10.67;7.00;;;;;20.33;57.61;101928.03;5055213;28;45255;-69
2022/06/14 00:22:28;;;;;;;;;13.67;11.00;;;;;20.32;57.47;101929.81;5056145;28;45263;-71
2022/06/14 00:24:58;;;;;;;;;8.00;7.67;;;;;20.30;57.88;101933.44;5055066;28;47939;-69
2022/06/14 00:27:23;;;;;;;;;16.67;13.00;;;;;20.28;58.21;101935.22;5050680;28;56697;-70
2022/06/14 00:29:48;;;;;;;;;11.33;9.67;;;;;20.27;58.23;101938.81;5055526;28;57564;-70
2022/06/14 00:32:14;;;;;;;;;12.00;9.67;;;;;20.26;57.98;101937.94;5054651;28;58261;-69
2022/06/14 00:34:39;;;;;;;;;14.00;9.67;;;;;20.25;58.17;101941.53;5055909;28;45746;-69
2022/06/14 00:37:05;;;;;;;;;6.00;6.00;;;;;20.24;58.45;101933.47;5057113;28;63281;-70
2022/06/14 00:39:30;;;;;;;;;8.33;7.33;;;;;20.21;58.59;101934.41;5058691;28;54453;-71
2022/06/14 00:41:56;;;;;;;;;9.67;7.67;;;;;20.18;59.60;101942.50;5059522;28;45298;-69
2022/06/14 00:44:30;;;;;;;;;9.00;6.00;;;;;20.16;58.75;101941.63;5041020;28;48910;-71
2022/06/14 00:47:03;;;;;;;;;7.67;6.33;;;;;20.14;59.42;101938.09;5056709;28;57505;-69
2022/06/14 00:49:43;;;;;;;;;6.00;6.00;;;;;20.12;59.36;101937.19;5056668;28;45541;-70
2022/06/14 00:52:16;;;;;;;;;6.67;6.67;;;;;20.09;60.45;101937.25;5059578;28;45158;-70
2022/06/14 00:54:45;;;;;;;;;6.33;5.00;;;;;20.06;59.54;101923.88;5058352;28;46183;-69
2022/06/14 00:57:18;;;;;;;;;6.00;4.67;;;;;20.05;59.16;101927.44;5058215;28;45532;-71
2022/06/14 00:59:50;;;;;;;;;7.67;5.00;;;;;20.03;59.87;101924.78;5057681;28;45446;-69
2022/06/14 01:02:28;;;;;;;;;5.00;5.00;;;;;20.02;59.42;101925.69;5059021;28;45490;-69
2022/06/14 01:04:54;;;;;;;;;4.67;4.67;;;;;20.00;59.50;101922.13;5050659;28;46137;-70
2022/06/14 01:07:32;;;;;;;;;6.33;5.33;;;;;19.97;59.80;101918.59;5058253;28;45339;-69
2022/06/14 01:10:03;;;;;;;;;9.33;5.00;;;;;19.95;60.45;101915.94;5056767;28;45326;-69
2022/06/14 01:12:35;;;;;;;;;5.33;5.33;;;;;19.92;60.73;101925.78;5057737;28;45597;-71
2022/06/14 01:15:08;;;;;;;;;7.67;6.00;;;;;19.87;60.70;101928.53;5057598;28;46049;-69
2022/06/14 01:17:43;;;;;;;;;5.00;5.00;;;;;19.83;60.94;101926.78;5057827;28;45573;-70
2022/06/14 01:20:15;;;;;;;;;6.00;6.00;;;;;19.81;61.04;101921.41;5056754;28;45560;-70
2022/06/14 01:22:40;;;;;;;;;3.00;3.00;;;;;19.79;61.06;101922.34;5050391;28;45565;-70
2022/06/14 01:25:06;;;;;;;;;7.00;4.67;;;;;19.73;62.24;101915.25;5058260;28;59491;-69
2022/06/14 01:27:34;;;;;;;;;4.67;4.67;;;;;19.71;61.44;101916.16;5058218;28;45207;-69
2022/06/14 01:30:17;;;;;;;;;4.33;4.33;;;;;19.67;61.57;101909.97;5057466;28;45367;-70
2022/06/14 01:32:49;;;;;;;;;4.67;4.00;;;;;19.63;62.36;101908.22;5052080;28;45536;-69
2022/06/14 01:35:18;;;;;;;;;5.67;4.67;;;;;19.60;62.11;101909.16;5057333;28;46746;-71
2022/06/14 01:37:46;;;;;;;;;4.67;4.67;;;;;19.56;61.97;101907.34;5058110;28;45572;-71
2022/06/14 01:40:11;;;;;;;;;4.67;4.67;;;;;19.54;61.93;101909.13;5057387;28;45340;-70
2022/06/14 01:42:45;;;;;;;;;4.33;4.33;;;;;19.50;62.10;101907.41;5058046;28;45334;-69
2022/06/14 01:45:23;;;;;;;;;4.67;4.67;;;;;19.46;62.07;101911.00;5058806;28;45895;-70
2022/06/14 01:47:59;;;;;;;;;3.67;3.67;;;;;19.41;62.48;101907.47;5057090;28;45579;-69
2022/06/14 01:53:51;;;;;;;;;6.00;5.00;;;;;19.30;62.98;101895.97;5057665;28;45487;-69
2022/06/14 01:56:31;;;;;;;;;5.67;5.33;;;;;19.27;63.09;101904.00;5056975;28;46016;-69
2022/06/14 01:59:06;;;;;;;;;5.33;5.33;;;;;19.21;62.93;101896.91;5055973;28;45322;-70
2022/06/14 02:01:40;;;;;;;;;7.00;5.33;;;;;19.17;64.02;101897.84;5057050;28;45582;-69
2022/06/14 02:07:33;;;;;;;;;6.00;6.00;;;;;19.09;64.55;101889.00;5061957;28;45522;-71
2022/06/14 02:10:38;;;;;;;;;6.00;5.00;;;;;19.05;64.11;101888.09;5039150;28;45269;-69
2022/06/14 02:13:33;;;;;;;;;8.67;6.00;;;;;19.02;64.34;101880.13;5057251;28;45514;-69
2022/06/14 02:16:06;;;;;;;;;5.33;5.33;;;;;18.98;64.63;101878.34;5057938;28;45398;-70
2022/06/14 02:18:39;;;;;;;;;6.00;6.00;;;;;18.98;64.70;101882.81;5056538;28;46547;-70
2022/06/14 02:21:12;;;;;;;;;7.67;7.00;;;;;18.92;66.53;101881.09;5054284;28;45510;-68
2022/06/14 02:23:41;;;;;;;;;6.67;6.33;;;;;18.89;65.58;101877.53;5056885;28;45624;-69
2022/06/14 02:26:11;;;;;;;;;8.00;6.33;;;;;18.87;66.27;101884.69;5057312;28;45546;-69
2022/06/14 02:28:42;;;;;;;;;7.33;7.33;;;;;18.84;65.92;101886.47;5055474;28;46059;-69
2022/06/14 02:31:12;;;;;;;;;6.33;6.33;;;;;18.85;65.62;101884.69;5056323;28;45473;-69
2022/06/14 02:33:41;;;;;;;;;7.00;6.33;;;;;18.80;66.28;101890.09;5056447;28;45435;-71
2022/06/14 02:36:12;;;;;;;;;7.67;7.67;;;;;18.77;66.48;101884.75;5058053;28;45334;-69
2022/06/14 02:39:03;;;;;;;;;6.33;6.33;;;;;18.73;67.52;101888.31;5048304;28;45504;-71
2022/06/14 02:41:32;;;;;;;;;8.00;7.00;;;;;18.69;68.64;101897.25;5049993;28;45340;-68
2022/06/14 02:44:03;;;;;;;;;8.00;6.00;;;;;18.66;67.67;101883.88;5058050;28;45757;-70
2022/06/14 02:46:40;;;;;;;;;8.67;6.00;;;;;18.61;68.80;101880.34;5039384;28;45311;-69
2022/06/14 02:49:11;;;;;;;;;8.00;8.00;;;;;18.58;68.79;101885.69;5057285;28;46566;-69
2022/06/14 02:51:49;;;;;;;;;9.00;6.00;;;;;18.54;69.04;101881.28;5055651;28;45376;-69
2022/06/14 02:54:21;;;;;;;;;7.00;7.00;;;;;18.51;68.59;101878.59;5056677;28;45271;-69
2022/06/14 02:56:51;;;;;;;;;7.00;7.00;;;;;18.46;68.77;101873.28;5056227;28;45449;-69
2022/06/14 02:59:22;;;;;;;;;6.67;6.67;;;;;18.46;68.44;101865.25;5055252;28;45698;-69
2022/06/14 03:02:13;;;;;;;;;8.00;7.00;;;;;18.44;68.83;101861.72;5057066;28;45242;-69
2022/06/14 03:04:47;;;;;;;;;7.67;7.67;;;;;18.37;69.11;101859.94;5055943;28;45350;-69
2022/06/14 03:07:45;;;;;;;;;6.33;6.33;;;;;18.31;70.01;101862.66;5056377;28;45513;-69
2022/06/14 03:10:11;;;;;;;;;9.00;6.00;;;;;18.28;70.05;101855.53;5040058;28;46215;-71
2022/06/14 03:13:08;;;;;;;;;11.33;7.00;;;;;18.23;69.74;101853.78;5055973;28;45384;-69
2022/06/14 03:15:42;;;;;;;;;8.67;5.00;;;;;18.22;70.26;101855.56;5052768;28;45636;-69
2022/06/14 03:18:20;;;;;;;;;10.00;7.00;;;;;18.21;70.15;101864.47;5049975;28;45557;-70
2022/06/14 03:21:02;;;;;;;;;6.00;5.00;;;;;18.19;70.44;101866.28;5056267;28;45710;-69
2022/06/14 03:23:49;;;;;;;;;5.67;5.00;;;;;18.16;70.67;101857.34;5055741;28;45382;-69
2022/06/14 03:26:17;;;;;;;;;5.33;5.00;;;;;18.16;71.62;101863.59;5055096;28;47069;-69
2022/06/14 03:29:06;;;;;;;;;4.00;4.00;;;;;18.13;71.90;101868.97;5055679;28;45539;-69
2022/06/14 03:31:37;;;;;;;;;6.00;5.00;;;;;18.13;71.28;101857.38;5041858;28;46610;-70
2022/06/14 03:34:07;;;;;;;;;5.33;4.00;;;;;18.12;72.47;101855.63;5048006;28;45753;-70
2022/06/14 03:36:32;;;;;;;;;7.00;5.67;;;;;18.11;72.39;101862.75;5057119;28;46879;-69
2022/06/14 03:39:04;;;;;;;;;8.00;6.67;;;;;18.11;71.64;101852.06;5056036;28;54558;-71
2022/06/14 03:41:32;;;;;;;;;4.00;4.00;;;;;18.09;72.18;101859.19;5055363;28;46754;-69
2022/06/14 03:43:59;;;;;;;;;5.67;5.67;;;;;18.08;72.84;101862.75;5055803;28;45591;-69
2022/06/14 03:46:34;;;;;;;;;7.67;5.00;;;;;18.08;72.37;101859.19;5055556;28;45439;-69
2022/06/14 03:49:12;;;;;;;;;3.33;3.00;;;;;18.10;72.72;101852.03;5055018;28;45613;-69
2022/06/14 03:52:02;;;;;;;;;5.00;3.67;;;;;18.09;72.45;101848.47;5056431;28;46491;-70
2022/06/14 03:54:43;;;;;;;;;4.00;4.00;;;;;18.12;72.38;101866.31;5055262;28;45344;-71
2022/06/14 03:57:33;;;;;;;;;5.00;4.00;;;;;18.13;72.76;101863.63;5055205;28;45344;-70
2022/06/14 04:00:10;;;;;;;;;6.33;4.00;;;;;18.14;73.16;101853.81;5056473;28;45456;-69
2022/06/14 04:03:07;;;;;;;;;5.00;5.00;;;;;18.14;71.93;101856.50;5054907;28;46613;-69
2022/06/14 04:05:32;;;;;;;;;4.67;3.00;;;;;18.14;71.94;101851.13;5055506;28;45433;-70
2022/06/14 04:08:16;;;;;;;;;6.67;5.00;;;;;18.14;72.17;101854.69;5056706;28;45710;-70
2022/06/14 04:11:03;;;;;;;;;7.00;5.00;;;;;18.12;72.34;101856.50;5055923;28;45226;-69
2022/06/14 04:14:06;;;;;;;;;4.00;4.00;;;;;18.09;72.63;101848.47;5055256;28;45491;-70
2022/06/14 04:16:59;;;;;;;;;6.00;6.00;;;;;18.06;72.14;101854.75;5055945;28;45280;-69
2022/06/14 04:20:00;;;;;;;;;5.00;5.00;;;;;18.04;73.27;101856.50;5050049;28;45435;-68
2022/06/14 04:22:43;;;;;;;;;5.33;5.33;;;;;18.02;73.15;101868.13;5043713;28;45596;-68
2022/06/14 04:25:11;;;;;;;;;6.33;5.33;;;;;18.00;73.36;101869.88;5055120;28;46448;-70
2022/06/14 04:27:39;;;;;;;;;6.67;5.33;;;;;17.98;73.27;101861.00;5055672;28;45444;-69
2022/06/14 04:30:09;;;;;;;;;9.33;4.67;;;;;17.94;73.71;101859.22;5054796;28;45422;-69
2022/06/14 04:32:54;;;;;;;;;6.00;6.00;;;;;17.92;74.09;101853.88;5054887;28;45627;-69
2022/06/14 04:35:30;;;;;;;;;6.33;6.00;;;;;17.90;74.42;101850.34;5055887;28;46712;-69
2022/06/14 04:38:07;;;;;;;;;5.33;5.00;;;;;17.85;74.19;101844.13;5055998;28;46684;-69
2022/06/14 04:40:48;;;;;;;;;5.00;5.00;;;;;17.86;74.45;101845.91;5049672;28;45847;-72
2022/06/14 04:43:21;;;;;;;;;5.00;5.00;;;;;17.87;74.17;101852.13;5055590;28;45477;-70
2022/06/14 04:45:56;;;;;;;;;8.00;5.00;;;;;17.86;74.89;101847.69;5053239;28;46534;-71
2022/06/14 04:48:48;;;;;;;;;10.33;6.00;;;;;17.86;74.47;101853.03;5055796;28;45495;-70
2022/06/14 04:51:31;;;;;;;;;7.33;5.00;;;;;17.86;74.89;101847.69;5055149;28;45580;-70
2022/06/14 04:54:02;;;;;;;;;5.67;5.00;;;;;17.88;75.14;101844.09;5053990;28;45384;-70
2022/06/14 04:57:05;;;;;;;;;8.00;6.00;;;;;17.89;75.05;101853.00;5054230;28;46950;-71
2022/06/14 04:59:50;;;;;;;;;6.00;6.00;;;;;17.89;75.72;101840.53;5023017;28;45346;-71
2022/06/14 05:02:22;;;;;;;;;6.33;6.33;;;;;17.89;75.91;101845.88;5053167;28;45468;-71
2022/06/14 05:04:53;;;;;;;;;6.67;5.00;;;;;17.90;75.63;101844.13;5053032;28;45598;-70
2022/06/14 05:07:25;;;;;;;;;5.33;5.00;;;;;17.89;76.42;101842.31;5055329;28;46377;-70
2022/06/14 05:09:58;;;;;;;;;6.00;6.00;;;;;17.92;76.41;101845.00;5054083;28;45290;-72
2022/06/14 05:12:35;;;;;;;;;7.00;7.00;;;;;17.91;77.01;101843.22;5054224;28;46872;-72
2022/06/14 05:15:17;;;;;;;;;8.00;6.00;;;;;17.93;76.17;101844.09;5053956;28;45584;-70
2022/06/14 05:17:49;;;;;;;;;6.00;5.00;;;;;17.94;76.85;101843.19;5036920;28;47556;-72
2022/06/14 05:20:25;;;;;;;;;6.33;6.00;;;;;17.91;76.67;101838.75;5053859;28;46877;-68
2022/06/14 05:23:01;;;;;;;;;6.00;6.00;;;;;17.95;77.00;101842.28;5052967;28;45580;-71
2022/06/14 05:25:36;;;;;;;;;8.00;7.00;;;;;17.97;77.02;101840.53;5057667;28;45500;-73
2022/06/14 05:28:05;;;;;;;;;5.33;4.00;;;;;17.99;76.98;101834.25;5057905;28;46696;-70
2022/06/14 05:30:54;;;;;;;;;8.33;5.00;;;;;18.01;77.11;101834.28;5053658;28;45600;-70
2022/06/14 05:33:46;;;;;;;;;5.67;5.67;;;;;18.02;77.25;101838.72;5057180;28;45572;-71
2022/06/14 05:36:22;;;;;;;;;6.67;6.00;;;;;18.07;77.82;101842.28;5057960;28;45370;-70
2022/06/14 05:39:01;;;;;;;;;7.00;5.00;;;;;18.09;77.86;101843.13;5054670;28;45466;-70
2022/06/14 05:41:39;;;;;;;;;6.00;5.00;;;;;18.13;78.00;101852.03;5056892;28;45441;-69
2022/06/14 05:44:11;;;;;;;;;5.00;5.00;;;;;18.17;77.53;101848.47;5057122;28;45342;-70
2022/06/14 05:46:47;;;;;;;;;9.33;6.00;;;;;18.20;77.84;101854.66;5055168;28;45905;-68
2022/06/14 05:49:21;;;;;;;;;7.00;7.00;;;;;18.20;78.77;101851.13;5054873;28;45876;-68
2022/06/14 05:52:19;;;;;;;;;6.00;5.00;;;;;18.18;78.66;101850.25;5042595;28;45569;-70
2022/06/14 05:54:49;;;;;;;;;7.33;7.33;;;;;18.22;78.40;101846.66;5047443;28;45386;-71
2022/06/14 05:57:19;;;;;;;;;7.00;5.67;;;;;18.26;78.88;101851.09;5050752;28;45471;-69
2022/06/14 06:02:27;;;;;;;;;6.67;5.00;;;;;18.36;78.49;101843.91;5183183;22;71984;-72
2022/06/14 06:04:58;;;;;;;;;7.00;7.00;;;;;18.41;77.52;101845.66;5055552;28;45387;-72
2022/06/14 06:07:28;;;;;;;;;6.00;6.00;;;;;18.47;77.62;101845.63;5055571;28;45417;-72
2022/06/14 06:10:08;;;;;;;;;6.00;6.00;;;;;18.54;77.35;101841.16;5060379;28;45422;-72
2022/06/14 06:12:38;;;;;;;;;6.67;5.00;;;;;18.62;77.15;101841.97;5052773;28;45564;-72
2022/06/14 06:15:23;;;;;;;;;12.67;9.00;;;;;18.69;77.25;101846.41;5056351;28;45446;-72
2022/06/14 06:17:52;;;;;;;;;7.00;7.00;;;;;18.74;76.58;101835.69;5057455;28;45551;-72
2022/06/14 06:20:29;;;;;;;;;7.67;7.33;;;;;18.81;76.08;101834.78;5053475;28;47684;-72
2022/06/14 06:23:02;;;;;;;;;8.33;6.33;;;;;18.87;76.67;101837.41;5057382;28;45338;-72
2022/06/14 06:25:30;;;;;;;;;6.33;6.00;;;;;18.93;76.48;101836.47;5053489;28;45595;-73
2022/06/14 06:28:11;;;;;;;;;7.67;6.33;;;;;18.97;76.28;101820.38;5056854;28;45460;-72
2022/06/14 06:30:47;;;;;;;;;6.00;5.67;;;;;19.01;76.13;101822.09;5046700;28;45662;-73
2022/06/14 06:33:13;;;;;;;;;8.67;6.00;;;;;19.06;75.41;101824.75;5055094;28;45378;-72
2022/06/14 06:35:49;;;;;;;;;7.00;6.33;;;;;19.10;75.75;101826.50;5054588;28;45303;-72
2022/06/14 06:38:34;;;;;;;;;9.67;6.33;;;;;19.15;75.75;101826.47;5053804;28;45620;-72
2022/06/14 06:43:57;;;;;;;;;8.67;5.33;;;;;19.25;74.75;101829.06;5055956;28;45149;-71
2022/06/14 06:46:24;;;;;;;;;8.67;6.33;;;;;19.31;74.71;101822.75;5056108;28;45413;-72
2022/06/14 06:48:55;;;;;;;;;6.33;6.33;;;;;19.34;74.75;101820.06;5056061;28;45312;-72
2022/06/14 06:51:25;;;;;;;;;5.67;4.00;;;;;19.39;74.85;101815.56;5055971;28;46316;-71
2022/06/14 06:54:04;;;;;;;;;5.00;5.00;;;;;19.45;74.76;101819.97;5055257;28;45507;-71
2022/06/14 06:56:37;;;;;;;;;7.33;6.00;;;;;19.52;74.33;101810.94;5054559;28;45529;-72
2022/06/14 06:59:26;;;;;;;;;10.67;7.00;;;;;19.57;74.57;101809.09;5055683;28;45748;-72
2022/06/14 07:01:54;;;;;;;;;8.67;6.00;;;;;19.62;74.13;101815.34;5055749;28;45714;-72
2022/06/14 07:07:23;;;;;;;;;7.33;6.00;;;;;19.69;74.14;101810.78;5057018;28;45204;-72
2022/06/14 07:09:54;;;;;;;;;7.33;5.67;;;;;19.71;73.44;101803.63;5054778;28;45492;-72
2022/06/14 07:12:42;;;;;;;;;14.00;8.00;;;;;19.74;73.20;101809.84;5052490;28;46329;-73
2022/06/14 07:15:27;;;;;;;;;7.67;6.00;;;;;19.79;73.34;101794.59;5069521;28;45618;-73
2022/06/14 07:18:02;;;;;;;;;5.33;4.67;;;;;19.87;73.13;101795.41;5055194;28;45393;-72
2022/06/14 07:21:00;;;;;;;;;11.00;4.33;;;;;19.94;73.12;101804.25;5054670;28;45521;-72
2022/06/14 07:23:32;;;;;;;;;6.33;5.00;;;;;20.00;72.81;101795.25;5052040;28;46681;-72
2022/06/14 07:26:09;;;;;;;;;8.00;6.00;;;;;20.08;72.08;101798.69;5053726;28;45569;-73
2022/06/14 07:28:40;;;;;;;;;12.00;7.00;;;;;20.14;71.83;101795.97;5054948;28;45390;-71
2022/06/14 07:31:10;;;;;;;;;12.33;5.00;;;;;20.23;72.51;101789.56;5051305;28;45627;-72
2022/06/14 07:33:36;;;;;;;;;10.00;7.00;;;;;20.30;71.74;101786.81;5052664;28;46482;-72
2022/06/14 07:39:59;;;;;;;;;6.00;4.00;;;;;20.48;71.75;101784.78;5051079;28;45791;-74
2022/06/14 07:42:34;;;;;;;;;6.33;5.00;;;;;20.51;70.74;101787.44;5054290;28;45866;-72
2022/06/14 07:45:10;;;;;;;;;6.00;4.00;;;;;20.54;71.51;101777.53;5055026;28;46736;-71
2022/06/14 07:47:57;;;;;;;;;6.00;6.00;;;;;20.61;71.00;101787.28;5053720;28;45430;-72
2022/06/14 07:50:27;;;;;;;;;8.00;6.00;;;;;20.67;70.00;101783.59;5052009;28;45408;-72
2022/06/14 07:52:53;;;;;;;;;5.67;4.00;;;;;20.75;69.58;101780.78;5055318;28;45534;-72
2022/06/14 07:55:22;;;;;;;;;6.67;3.00;;;;;20.79;69.52;101775.34;5054222;28;46488;-72
2022/06/14 07:57:51;;;;;;;;;4.00;4.00;;;;;20.84;70.58;101770.78;5053717;28;45719;-72
2022/06/14 08:03:15;;;;;;;;;3.67;3.67;;;;;20.99;69.66;101761.59;5056641;28;45454;-70
2022/06/14 08:05:43;;;;;;;;;4.00;4.00;;;;;21.05;70.97;101763.28;5053106;28;45547;-70
2022/06/14 08:08:12;;;;;;;;;10.00;4.00;;;;;21.12;70.14;101762.25;5052665;28;45458;-70
2022/06/14 08:10:42;;;;;;;;;7.33;4.33;;;;;21.18;69.27;101751.41;5054757;28;45443;-70
2022/06/14 08:13:13;;;;;;;;;5.00;4.00;;;;;21.27;69.31;101748.56;5052748;28;45513;-70
2022/06/14 08:15:46;;;;;;;;;5.00;5.00;;;;;21.34;68.57;101746.66;5053241;28;46787;-70
2022/06/14 08:18:18;;;;;;;;;4.00;4.00;;;;;21.42;68.08;101742.06;5055204;28;45394;-71
2022/06/14 08:20:49;;;;;;;;;7.00;5.33;;;;;21.49;67.50;101741.00;5053867;28;47168;-71
2022/06/14 08:23:40;;;;;;;;;10.00;3.67;;;;;21.59;67.48;101745.28;5055767;28;45457;-71
2022/06/14 08:26:11;;;;;;;;;4.00;4.00;;;;;21.66;66.88;101748.72;5046140;28;46202;-70
2022/06/14 08:28:43;;;;;;;;;5.00;5.00;;;;;21.74;66.72;101749.47;5054653;28;45271;-71
2022/06/14 08:31:15;;;;;;;;;5.00;5.00;;;;;21.81;65.88;101745.72;5053042;28;46387;-71
2022/06/14 08:33:54;;;;;;;;;6.33;5.00;;;;;21.89;66.13;101740.16;5053656;28;45446;-71
2022/06/14 08:36:25;;;;;;;;;6.00;5.00;;;;;21.98;65.75;101731.91;5053100;28;46720;-71
2022/06/14 08:38:55;;;;;;;;;5.33;4.00;;;;;22.07;64.81;101736.22;5053958;28;45449;-71
2022/06/14 08:41:29;;;;;;;;;6.00;3.67;;;;;22.15;65.42;101726.19;5052299;28;45604;-71
2022/06/14 08:44:21;;;;;;;;;6.67;5.00;;;;;22.24;64.42;101728.66;5052312;28;45664;-71
2022/06/14 08:47:01;;;;;;;;;5.00;5.00;;;;;22.31;63.61;101740.16;5045387;28;46466;-70
2022/06/14 08:49:51;;;;;;;;;6.33;5.00;;;;;22.34;63.40;101732.91;5058909;28;45553;-71
2022/06/14 08:52:56;;;;;;;;;8.33;5.00;;;;;22.40;62.94;101727.38;5062950;28;45551;-71
2022/06/14 08:55:46;;;;;;;;;4.00;4.00;;;;;22.42;62.51;101730.91;5050166;28;45264;-71
2022/06/14 08:58:32;;;;;;;;;5.00;5.00;;;;;22.45;62.27;101732.66;5054908;28;46513;-70
2022/06/14 09:01:48;;;;;;;;;6.00;4.33;;;;;22.49;62.63;101735.25;5054874;28;45489;-71
2022/06/14 09:04:50;;;;;;;;;4.00;4.00;;;;;22.56;61.91;101729.72;4977919;28;45483;-70
2022/06/14 09:07:36;;;;;;;;;6.00;5.33;;;;;22.62;61.39;101732.25;5054662;28;45323;-71
2022/06/14 09:10:26;;;;;;;;;6.67;4.00;;;;;22.68;62.05;101732.97;5055843;28;46240;-71
2022/06/14 09:13:12;;;;;;;;;5.00;4.33;;;;;22.76;61.53;101727.41;5056740;28;45301;-71
2022/06/14 09:16:28;;;;;;;;;4.00;4.00;;;;;22.84;60.88;101725.41;5053533;28;45462;-71
2022/06/14 09:18:54;;;;;;;;;6.00;3.33;;;;;22.92;61.15;101728.81;5041656;28;45383;-71
2022/06/14 09:21:30;;;;;;;;;6.00;3.67;;;;;22.99;59.95;101727.72;5057743;28;45374;-71
2022/06/14 09:24:22;;;;;;;;;4.00;4.00;;;;;23.05;60.11;101726.69;5051702;28;45504;-71
2022/06/14 09:27:15;;;;;;;;;3.00;3.00;;;;;23.11;60.06;101723.81;5056618;28;45388;-72
2022/06/14 09:30:01;;;;;;;;;6.33;4.33;;;;;23.17;59.23;101712.00;5058197;28;45541;-72
2022/06/14 09:35:45;;;;;;;;;3.33;3.33;;;;;23.22;58.80;101702.88;5057558;28;45456;-72
2022/06/14 09:38:22;;;;;;;;;3.33;3.00;;;;;23.24;59.46;101721.69;5057546;28;45208;-71
2022/06/14 09:41:12;;;;;;;;;4.33;3.00;;;;;23.27;58.49;101710.81;5056964;28;45648;-71
2022/06/14 09:43:50;;;;;;;;;4.00;4.00;;;;;23.29;57.94;101718.88;5057939;28;46614;-71
2022/06/14 09:46:30;;;;;;;;;5.67;4.00;;;;;23.32;58.33;101722.34;5056248;28;45388;-71
2022/06/14 09:49:29;;;;;;;;;6.00;4.67;;;;;23.36;57.84;101713.25;5057028;28;45599;-70
2022/06/14 09:52:14;;;;;;;;;5.33;3.33;;;;;23.39;58.70;101715.88;5052118;28;45604;-71
2022/06/14 09:54:54;;;;;;;;;5.67;4.33;;;;;23.43;57.92;101724.75;5053350;28;46577;-71
2022/06/14 09:57:35;;;;;;;;;6.00;3.33;;;;;23.44;57.80;101718.44;5070179;27;45441;-71
2022/06/14 10:00:13;;;;;;;;;8.00;4.33;;;;;23.46;57.25;101714.78;5052794;28;45276;-71
2022/06/14 10:02:47;;;;;;;;;5.00;5.00;;;;;23.49;57.71;101706.59;5055686;28;45573;-70
2022/06/14 10:05:24;;;;;;;;;6.67;5.00;;;;;23.52;57.59;101713.72;5055787;28;45402;-71
2022/06/14 10:07:54;;;;;;;;;6.00;4.00;;;;;23.56;56.93;101701.03;5054185;28;45473;-71
2022/06/14 10:10:34;;;;;;;;;6.00;4.67;;;;;23.59;57.49;101695.53;5054243;28;45313;-70
2022/06/14 10:13:05;;;;;;;;;5.00;5.00;;;;;23.64;57.18;101699.00;5055893;28;45291;-70
2022/06/14 10:15:43;;;;;;;;;4.00;4.00;;;;;23.70;56.76;101705.13;5056538;28;45596;-71
2022/06/14 10:18:17;;;;;;;;;3.33;3.00;;;;;23.74;57.31;101705.91;5056164;28;45471;-71
2022/06/14 10:20:49;;;;;;;;;5.00;3.67;;;;;23.81;57.71;101698.50;5055081;28;46373;-72
2022/06/14 10:23:41;;;;;;;;;5.00;5.00;;;;;23.87;58.17;101696.53;5053877;28;45466;-71
2022/06/14 10:29:06;;;;;;;;;6.33;5.00;;;;;23.99;56.87;101697.97;5067815;27;45397;-71
2022/06/14 10:31:53;;;;;;;;;5.67;4.67;;;;;24.04;57.48;101688.78;5056047;28;45489;-70
2022/06/14 10:34:18;;;;;;;;;4.33;4.33;;;;;24.09;57.59;101693.16;5057324;28;45623;-71
2022/06/14 10:37:20;;;;;;;;;4.00;4.00;;;;;24.12;57.96;101693.06;5056261;28;45537;-71
2022/06/14 10:39:45;;;;;;;;;4.00;4.00;;;;;24.19;57.07;101690.13;5002024;28;45399;-71
2022/06/14 10:42:28;;;;;;;;;6.00;5.00;;;;;24.23;55.13;101678.28;5057040;28;45545;-70
2022/06/14 10:45:20;;;;;;;;;6.00;6.00;;;;;24.27;56.66;101673.69;5053434;28;45540;-70
2022/06/14 10:48:07;;;;;;;;;6.67;6.00;;;;;24.31;56.97;101672.66;5055586;28;45676;-71
2022/06/14 10:50:53;;;;;;;;;6.00;4.00;;;;;24.34;56.05;101663.56;5056233;28;45369;-70
2022/06/14 10:53:30;;;;;;;;;5.00;5.00;;;;;24.41;56.99;101657.06;5054136;28;45306;-72
2022/06/14 10:56:09;;;;;;;;;4.00;4.00;;;;;24.45;54.20;101651.53;5056345;28;45506;-72
2022/06/14 10:58:58;;;;;;;;;5.67;5.67;;;;;24.52;55.38;101655.78;5056111;28;46006;-72
2022/06/14 11:01:45;;;;;;;;;4.67;4.00;;;;;24.60;54.16;101651.91;5046384;28;45529;-71
2022/06/14 11:04:30;;;;;;;;;8.00;5.33;;;;;24.68;55.28;101656.13;5054279;28;45599;-72
2022/06/14 11:07:04;;;;;;;;;5.67;5.67;;;;;24.73;55.20;101643.34;5055799;28;45511;-72
2022/06/14 11:10:20;;;;;;;;;6.67;6.00;;;;;24.75;54.75;101637.88;5055782;28;47883;-74
2022/06/14 11:13:07;;;;;;;;;4.67;4.67;;;;;24.78;54.90;101640.50;4994175;28;46572;-72
2022/06/14 11:15:45;;;;;;;;;6.67;5.00;;;;;24.83;55.02;101633.97;4991927;28;45509;-72
2022/06/14 11:18:37;;;;;;;;;6.00;6.00;;;;;24.89;53.93;101618.50;5030475;28;45506;-75
2022/06/14 11:21:08;;;;;;;;;6.00;4.00;;;;;24.94;52.63;101620.09;5053767;28;47942;-74
2022/06/14 11:23:39;;;;;;;;;6.00;6.00;;;;;25.03;54.18;101614.31;5055088;28;45574;-73
2022/06/14 11:26:18;;;;;;;;;5.00;5.00;;;;;25.12;54.69;101607.75;5053323;28;45270;-72
2022/06/14 11:28:51;;;;;;;;;8.00;6.67;;;;;25.21;53.64;101609.22;5049963;28;45654;-72
2022/06/14 11:31:24;;;;;;;;;6.00;6.00;;;;;25.29;52.97;101604.41;5054240;28;47548;-71
2022/06/14 11:34:02;;;;;;;;;6.00;6.00;;;;;25.36;53.03;101595.13;5053076;28;45383;-71
2022/06/14 11:36:38;;;;;;;;;7.00;5.00;;;;;25.46;53.02;101604.66;5055737;28;45345;-74
2022/06/14 11:39:26;;;;;;;;;8.00;7.00;;;;;25.51;52.34;101596.34;5052925;28;45402;-72
2022/06/14 11:41:52;;;;;;;;;4.00;4.00;;;;;25.57;52.07;101590.72;5052803;28;45588;-71
2022/06/14 11:44:31;;;;;;;;;6.00;5.00;;;;;25.65;52.76;101585.00;5053220;28;45639;-73
2022/06/14 11:47:11;;;;;;;;;7.67;6.00;;;;;25.75;52.52;101581.00;5054256;28;45397;-72
2022/06/14 11:50:02;;;;;;;;;6.00;5.33;;;;;25.90;50.76;101576.81;5055022;28;45544;-71
2022/06/14 11:53:05;;;;;;;;;6.00;5.00;;;;;26.06;51.11;101573.41;5051772;28;45880;-71
2022/06/14 11:55:37;;;;;;;;;6.00;4.00;;;;;26.24;50.07;101570.84;4996314;28;45622;-71
2022/06/14 11:58:09;;;;;;;;;9.00;6.00;;;;;26.37;49.90;101575.69;5054068;28;45442;-70
2022/06/14 12:01:01;;;;;;;;;4.00;4.00;;;;;26.48;49.64;101569.84;5053604;28;45507;-71
2022/06/14 12:03:29;;;;;;;;;10.67;6.00;;;;;26.61;49.89;101570.19;5012401;28;46423;-72
2022/06/14 12:06:11;;;;;;;;;5.67;4.00;;;;;26.72;49.56;101556.16;5011542;28;45655;-71
2022/06/14 12:09:02;;;;;;;;;5.67;5.67;;;;;26.80;47.77;101556.72;5008643;28;45464;-71
2022/06/14 12:11:34;;;;;;;;;6.00;5.00;;;;;26.92;48.45;101556.13;5013079;28;45569;-71
2022/06/14 12:14:29;;;;;;;;;5.00;5.00;;;;;27.04;49.04;101549.25;5015249;28;46507;-71
2022/06/14 12:17:12;;;;;;;;;5.00;5.00;;;;;27.11;49.23;101556.19;5025725;28;45320;-71
2022/06/14 12:19:39;;;;;;;;;8.67;5.33;;;;;27.15;48.41;101555.97;5011631;28;45660;-71
2022/06/14 12:22:28;;;;;;;;;7.67;5.67;;;;;27.21;48.20;101551.22;5011656;28;62361;-72
2022/06/14 12:28:30;;;;;;;;;8.00;6.00;;;;;27.24;47.67;101543.81;5008535;28;45595;-71
2022/06/14 12:31:03;;;;;;;;;6.33;6.00;;;;;27.32;47.40;101533.47;5016527;28;45472;-71
2022/06/14 12:33:38;;;;;;;;;5.00;4.33;;;;;27.42;48.43;101542.06;5011658;28;47600;-71
2022/06/14 12:36:17;;;;;;;;;5.33;5.33;;;;;27.47;47.24;101525.56;5014823;28;45724;-71
2022/06/14 12:38:44;;;;;;;;;4.67;4.00;;;;;27.55;47.33;101516.13;5013319;28;45488;-71
2022/06/14 12:41:20;;;;;;;;;5.00;3.00;;;;;27.67;47.95;101520.06;5008810;28;45705;-71
2022/06/14 12:44:12;;;;;;;;;4.00;4.00;;;;;27.73;48.09;101513.47;5007058;28;46274;-70